createdAt,value
2018-06-27T00:00:03.275Z,35.30
2018-06-27T00:01:03.292Z,39.40
2018-06-27T00:02:03.244Z,35.70
2018-06-27T00:03:03.177Z,32.10
2018-06-27T00:04:03.141Z,30.80
2018-06-27T00:05:03.116Z,25.20
2018-06-27T00:06:03.081Z,23.10
2018-06-27T00:07:03.050Z,26.60
2018-06-27T00:08:03.254Z,29.30
2018-06-27T00:09:03.188Z,32.20
2018-06-27T00:10:02.969Z,24.30
2018-06-27T00:11:02.943Z,22.40
2018-06-27T00:12:02.908Z,28.60
2018-06-27T00:13:02.867Z,18.90
2018-06-27T00:14:03.021Z,19.20
2018-06-27T00:15:02.806Z,19.20
2018-06-27T00:16:02.791Z,16.20
2018-06-27T00:17:02.740Z,19.20
2018-06-27T00:18:02.715Z,16.80
2018-06-27T00:19:02.688Z,23.40
2018-06-27T00:20:02.657Z,13.50
2018-06-27T00:21:02.670Z,26.00
2018-06-27T00:22:02.642Z,16.80
2018-06-27T00:23:02.560Z,16.10
2018-06-27T00:25:02.499Z,18.60
2018-06-27T00:26:02.480Z,16.70
2018-06-27T00:27:02.448Z,24.80
2018-06-27T00:28:02.424Z,20.20
2018-06-27T00:29:02.375Z,18.50
2018-06-27T00:30:02.495Z,15.90
2018-06-27T00:31:02.315Z,20.00
2018-06-27T00:32:02.280Z,13.80
2018-06-27T00:33:02.252Z,15.20
2018-06-27T00:34:02.219Z,16.60
2018-06-27T00:35:02.207Z,18.10
2018-06-27T00:36:02.163Z,11.20
2018-06-27T00:37:02.155Z,16.40
2018-06-27T00:38:02.096Z,16.60
2018-06-27T00:39:02.276Z,15.00
2018-06-27T00:40:02.047Z,11.90
2018-06-27T00:41:02.123Z,10.40
2018-06-27T00:42:01.983Z,14.90
2018-06-27T00:43:01.949Z,12.20
2018-06-27T00:44:01.918Z,12.00
2018-06-27T00:45:01.886Z,17.30
2018-06-27T00:46:01.857Z,15.40
2018-06-27T00:47:02.018Z,13.60
2018-06-27T00:48:01.794Z,18.60
2018-06-27T00:49:01.764Z,12.60
2018-06-27T00:50:01.772Z,15.70
2018-06-27T00:51:01.687Z,17.70
2018-06-27T00:52:01.671Z,11.70
2018-06-27T00:53:01.638Z,14.80
2018-06-27T00:54:01.597Z,11.40
2018-06-27T00:55:01.574Z,15.90
2018-06-27T00:56:01.567Z,16.20
2018-06-27T00:57:01.519Z,24.50
2018-06-27T00:58:01.482Z,15.50
2018-06-27T00:59:01.443Z,14.10
2018-06-27T01:00:01.415Z,15.80
2018-06-27T01:01:01.382Z,15.10
2018-06-27T01:02:01.373Z,13.50
2018-06-27T01:03:01.320Z,18.40
2018-06-27T01:04:01.288Z,21.90
2018-06-27T01:05:01.263Z,16.60
2018-06-27T01:06:01.228Z,17.50
2018-06-27T01:07:01.220Z,11.30
2018-06-27T01:08:01.179Z,14.70
2018-06-27T01:09:01.144Z,13.60
2018-06-27T01:10:01.266Z,13.30
2018-06-27T01:11:01.073Z,20.30
2018-06-27T01:12:01.042Z,16.10
2018-06-27T01:13:01.025Z,17.30
2018-06-27T01:14:00.980Z,10.70
2018-06-27T01:15:00.956Z,17.90
2018-06-27T01:16:00.907Z,18.20
2018-06-27T01:17:00.883Z,16.30
2018-06-27T01:18:00.862Z,18.50
2018-06-27T01:19:00.821Z,17.60
2018-06-27T01:20:00.856Z,19.60
2018-06-27T01:21:00.762Z,15.30
2018-06-27T01:22:00.729Z,21.80
2018-06-27T01:23:00.705Z,13.40
2018-06-27T01:24:00.662Z,14.20
2018-06-27T01:25:00.650Z,16.80
2018-06-27T01:26:00.609Z,17.90
2018-06-27T01:27:00.583Z,22.10
2018-06-27T01:28:00.550Z,20.80
2018-06-27T01:29:00.522Z,19.70
2018-06-27T01:30:00.632Z,14.70
2018-06-27T01:31:00.447Z,21.50
2018-06-27T01:32:00.434Z,16.50
2018-06-27T01:33:00.405Z,14.00
2018-06-27T01:34:00.353Z,17.50
2018-06-27T01:35:00.330Z,16.90
2018-06-27T01:36:00.302Z,14.70
2018-06-27T01:37:00.253Z,27.00
2018-06-27T01:38:00.228Z,18.30
2018-06-27T01:39:00.199Z,15.50
2018-06-27T01:40:00.179Z,14.30
2018-06-27T01:41:00.137Z,15.60
2018-06-27T01:42:00.106Z,17.90
2018-06-27T01:43:00.075Z,12.70
2018-06-27T01:44:00.052Z,15.10
2018-06-27T01:45:00.019Z,11.90
2018-06-27T01:45:59.973Z,20.00
2018-06-27T01:46:59.942Z,20.80
2018-06-27T01:47:59.918Z,20.70
2018-06-27T01:48:59.884Z,18.90
2018-06-27T01:49:59.852Z,17.90
2018-06-27T01:50:59.832Z,15.00
2018-06-27T01:51:59.786Z,19.20
2018-06-27T01:52:59.770Z,13.80
2018-06-27T01:53:59.723Z,20.00
2018-06-27T01:54:59.693Z,16.00
2018-06-27T01:55:59.667Z,14.20
2018-06-27T01:56:59.629Z,18.10
2018-06-27T01:57:59.609Z,17.30
2018-06-27T01:58:59.579Z,19.00
2018-06-27T01:59:59.551Z,19.60
2018-06-27T02:00:59.505Z,9.40
2018-06-27T02:01:59.832Z,16.80
2018-06-27T02:02:59.438Z,18.80
2018-06-27T02:03:59.412Z,23.00
2018-06-27T02:04:59.379Z,11.00
2018-06-27T02:05:59.349Z,16.40
2018-06-27T02:06:59.323Z,13.30
2018-06-27T02:07:59.338Z,13.70
2018-06-27T02:08:59.249Z,15.70
2018-06-27T02:09:59.236Z,12.70
2018-06-27T02:10:59.273Z,15.30
2018-06-27T02:11:59.173Z,13.60
2018-06-27T02:12:59.119Z,11.40
2018-06-27T02:13:59.134Z,16.90
2018-06-27T02:14:59.067Z,11.40
2018-06-27T02:15:59.042Z,18.30
2018-06-27T02:16:58.997Z,9.20
2018-06-27T02:17:58.975Z,17.40
2018-06-27T02:18:59.144Z,13.50
2018-06-27T02:19:58.902Z,12.50
2018-06-27T02:20:58.877Z,18.80
2018-06-27T02:21:58.848Z,18.30
2018-06-27T02:22:58.812Z,14.30
2018-06-27T02:23:58.920Z,12.10
2018-06-27T02:24:58.748Z,18.30
2018-06-27T02:25:58.729Z,17.10
2018-06-27T02:26:58.688Z,16.80
2018-06-27T02:27:58.649Z,8.10
2018-06-27T02:28:58.627Z,15.40
2018-06-27T02:29:58.598Z,16.90
2018-06-27T02:30:58.562Z,13.00
2018-06-27T02:31:58.523Z,10.90
2018-06-27T02:32:58.714Z,15.50
2018-06-27T02:33:58.463Z,14.20
2018-06-27T02:34:58.578Z,14.70
2018-06-27T02:35:58.398Z,15.40
2018-06-27T02:36:58.364Z,13.20
2018-06-27T02:37:58.344Z,12.60
2018-06-27T02:38:58.302Z,15.50
2018-06-27T02:39:58.289Z,12.40
2018-06-27T02:40:58.242Z,14.30
2018-06-27T02:41:58.214Z,10.50
2018-06-27T02:42:58.172Z,16.20
2018-06-27T02:43:58.150Z,11.90
2018-06-27T02:44:58.124Z,13.80
2018-06-27T02:45:58.078Z,14.20
2018-06-27T02:46:58.051Z,16.20
2018-06-27T02:47:58.017Z,16.50
2018-06-27T02:48:57.983Z,17.40
2018-06-27T02:49:57.950Z,13.50
2018-06-27T02:50:57.930Z,21.50
2018-06-27T02:51:57.882Z,14.70
2018-06-27T02:52:57.871Z,17.00
2018-06-27T02:53:57.841Z,14.40
2018-06-27T02:54:57.785Z,12.20
2018-06-27T02:55:57.966Z,17.70
2018-06-27T02:56:57.740Z,12.60
2018-06-27T02:57:57.706Z,15.10
2018-06-27T02:58:57.734Z,15.80
2018-06-27T02:59:57.640Z,17.00
2018-06-27T03:00:57.597Z,12.80
2018-06-27T03:01:57.566Z,12.70
2018-06-27T03:02:57.621Z,13.40
2018-06-27T03:03:57.498Z,13.10
2018-06-27T03:04:57.468Z,19.60
2018-06-27T03:05:57.446Z,14.20
2018-06-27T03:06:57.460Z,16.10
2018-06-27T03:07:57.375Z,15.00
2018-06-27T03:08:57.353Z,19.40
2018-06-27T03:09:57.320Z,19.30
2018-06-27T03:10:57.278Z,13.70
2018-06-27T03:11:57.251Z,13.00
2018-06-27T03:12:57.219Z,13.60
2018-06-27T03:13:57.183Z,9.80
2018-06-27T03:14:57.150Z,12.50
2018-06-27T03:15:57.127Z,17.70
2018-06-27T03:16:57.086Z,10.90
2018-06-27T03:17:57.053Z,9.30
2018-06-27T03:18:57.088Z,12.40
2018-06-27T03:19:56.995Z,9.20
2018-06-27T03:20:56.961Z,10.30
2018-06-27T03:21:56.924Z,11.40
2018-06-27T03:22:56.900Z,6.40
2018-06-27T03:23:56.866Z,12.20
2018-06-27T03:24:56.847Z,17.90
2018-06-27T03:25:56.799Z,10.20
2018-06-27T03:26:57.114Z,11.70
2018-06-27T03:27:56.735Z,17.10
2018-06-27T03:28:56.703Z,10.50
2018-06-27T03:29:56.675Z,9.90
2018-06-27T03:30:56.645Z,13.50
2018-06-27T03:31:56.637Z,13.00
2018-06-27T03:32:56.575Z,12.80
2018-06-27T03:33:56.550Z,13.20
2018-06-27T03:34:56.510Z,11.70
2018-06-27T03:35:56.475Z,19.60
2018-06-27T03:36:56.445Z,10.80
2018-06-27T03:37:56.427Z,15.10
2018-06-27T03:38:56.386Z,22.70
2018-06-27T03:39:56.349Z,17.30
2018-06-27T03:40:56.313Z,18.70
2018-06-27T03:41:56.280Z,16.90
2018-06-27T03:42:56.260Z,19.20
2018-06-27T03:43:56.219Z,13.20
2018-06-27T03:44:56.188Z,15.50
2018-06-27T03:45:56.166Z,18.40
2018-06-27T03:46:56.138Z,17.30
2018-06-27T03:47:56.086Z,16.60
2018-06-27T03:48:56.062Z,15.80
2018-06-27T03:49:56.026Z,9.70
2018-06-27T03:50:55.995Z,10.50
2018-06-27T03:51:55.959Z,15.40
2018-06-27T03:52:55.936Z,15.40
2018-06-27T03:53:55.892Z,15.60
2018-06-27T03:54:55.868Z,16.10
2018-06-27T03:55:55.833Z,14.70
2018-06-27T03:56:55.800Z,15.90
2018-06-27T03:57:55.775Z,15.40
2018-06-27T03:58:55.781Z,11.90
2018-06-27T03:59:55.701Z,12.60
2018-06-27T04:00:55.674Z,19.50
2018-06-27T04:01:55.634Z,10.90
2018-06-27T04:02:55.601Z,17.20
2018-06-27T04:03:56.034Z,14.50
2018-06-27T04:04:55.574Z,12.20
2018-06-27T04:05:55.504Z,13.60
2018-06-27T04:06:55.484Z,12.70
2018-06-27T04:07:55.446Z,14.20
2018-06-27T04:08:55.413Z,16.80
2018-06-27T04:09:55.392Z,18.80
2018-06-27T04:10:55.355Z,9.90
2018-06-27T04:11:55.315Z,11.90
2018-06-27T04:12:55.312Z,10.80
2018-06-27T04:13:55.254Z,10.40
2018-06-27T04:14:55.214Z,12.10
2018-06-27T04:15:55.186Z,18.40
2018-06-27T04:16:55.149Z,11.60
2018-06-27T04:17:55.155Z,11.20
2018-06-27T04:18:55.088Z,17.80
2018-06-27T04:19:55.055Z,18.40
2018-06-27T04:20:55.021Z,11.10
2018-06-27T04:21:55.001Z,11.20
2018-06-27T04:22:54.960Z,12.20
2018-06-27T04:23:54.928Z,14.10
2018-06-27T04:24:55.099Z,16.70
2018-06-27T04:25:54.865Z,12.10
2018-06-27T04:26:54.826Z,23.90
2018-06-27T04:27:54.794Z,14.20
2018-06-27T04:28:54.762Z,15.10
2018-06-27T04:29:54.726Z,15.00
2018-06-27T04:30:54.694Z,15.50
2018-06-27T04:31:54.672Z,14.90
2018-06-27T04:32:54.636Z,18.70
2018-06-27T04:33:54.608Z,16.80
2018-06-27T04:34:54.572Z,13.80
2018-06-27T04:35:54.557Z,21.20
2018-06-27T04:36:54.505Z,14.60
2018-06-27T04:37:54.467Z,16.30
2018-06-27T04:38:54.438Z,13.30
2018-06-27T04:39:54.405Z,15.10
2018-06-27T04:41:54.336Z,17.80
2018-06-27T04:42:54.313Z,14.90
2018-06-27T04:43:54.271Z,17.40
2018-06-27T04:44:54.245Z,13.00
2018-06-27T04:45:54.210Z,11.10
2018-06-27T04:46:54.187Z,9.30
2018-06-27T04:47:54.141Z,14.30
2018-06-27T04:48:54.119Z,13.60
2018-06-27T04:49:54.093Z,12.10
2018-06-27T04:50:54.052Z,11.60
2018-06-27T04:51:54.016Z,9.70
2018-06-27T04:52:53.985Z,18.70
2018-06-27T04:53:53.945Z,11.50
2018-06-27T04:54:53.920Z,10.40
2018-06-27T04:55:53.885Z,15.50
2018-06-27T04:56:53.854Z,16.50
2018-06-27T04:57:53.828Z,15.00
2018-06-27T04:58:53.785Z,9.30
2018-06-27T04:59:53.782Z,15.30
2018-06-27T05:00:53.725Z,13.10
2018-06-27T05:01:53.684Z,12.70
2018-06-27T05:02:53.662Z,13.00
2018-06-27T05:03:53.631Z,9.10
2018-06-27T05:04:53.592Z,15.10
2018-06-27T05:05:53.558Z,12.40
2018-06-27T05:06:53.521Z,15.80
2018-06-27T05:07:53.498Z,21.20
2018-06-27T05:08:53.460Z,14.60
2018-06-27T05:09:53.424Z,19.30
2018-06-27T05:10:53.408Z,12.90
2018-06-27T05:11:53.364Z,11.60
2018-06-27T05:12:53.728Z,18.80
2018-06-27T05:13:53.303Z,10.00
2018-06-27T05:14:53.281Z,11.30
2018-06-27T05:15:53.235Z,16.20
2018-06-27T05:16:53.336Z,10.10
2018-06-27T05:17:53.173Z,13.90
2018-06-27T05:18:53.336Z,19.10
2018-06-27T05:19:53.118Z,17.00
2018-06-27T05:20:53.068Z,16.40
2018-06-27T05:21:53.037Z,21.10
2018-06-27T05:22:53.006Z,11.30
2018-06-27T05:23:52.965Z,12.90
2018-06-27T05:24:52.964Z,11.10
2018-06-27T05:25:52.904Z,18.40
2018-06-27T05:26:52.874Z,19.60
2018-06-27T05:27:52.856Z,19.20
2018-06-27T05:28:53.041Z,22.10
2018-06-27T05:29:52.783Z,11.40
2018-06-27T05:30:52.739Z,20.50
2018-06-27T05:31:52.708Z,16.60
2018-06-27T05:32:52.677Z,14.60
2018-06-27T05:33:52.678Z,17.10
2018-06-27T05:34:53.016Z,15.90
2018-06-27T05:35:52.579Z,19.10
2018-06-27T05:36:52.541Z,10.20
2018-06-27T05:37:52.506Z,13.40
2018-06-27T05:38:52.475Z,13.70
2018-06-27T05:39:52.455Z,13.50
2018-06-27T05:40:52.463Z,13.50
2018-06-27T05:41:52.374Z,12.40
2018-06-27T05:42:52.346Z,14.50
2018-06-27T05:43:52.311Z,13.50
2018-06-27T05:44:52.340Z,14.20
2018-06-27T05:45:52.255Z,12.80
2018-06-27T05:46:52.210Z,10.80
2018-06-27T05:47:52.190Z,11.70
2018-06-27T05:48:52.151Z,10.90
2018-06-27T05:49:52.147Z,12.70
2018-06-27T05:50:52.081Z,12.50
2018-06-27T05:51:52.055Z,12.80
2018-06-27T05:52:52.035Z,9.70
2018-06-27T05:53:51.983Z,13.60
2018-06-27T05:54:51.957Z,11.10
2018-06-27T05:55:51.924Z,7.30
2018-06-27T05:56:52.150Z,9.10
2018-06-27T05:57:51.916Z,11.30
2018-06-27T05:58:51.829Z,13.90
2018-06-27T05:59:51.787Z,10.10
2018-06-27T06:00:51.758Z,10.50
2018-06-27T06:01:51.729Z,9.90
2018-06-27T06:02:51.693Z,14.70
2018-06-27T06:03:51.657Z,10.60
2018-06-27T06:04:51.621Z,12.60
2018-06-27T06:05:51.594Z,10.10
2018-06-27T06:06:51.566Z,14.20
2018-06-27T06:07:51.928Z,12.30
2018-06-27T06:08:51.494Z,9.30
2018-06-27T06:09:51.462Z,9.50
2018-06-27T06:10:51.430Z,10.80
2018-06-27T06:11:51.399Z,12.90
2018-06-27T06:12:51.381Z,12.10
2018-06-27T06:13:51.529Z,11.40
2018-06-27T06:14:51.295Z,10.60
2018-06-27T06:15:51.266Z,9.40
2018-06-27T06:16:51.231Z,10.60
2018-06-27T06:17:51.194Z,11.90
2018-06-27T06:18:51.218Z,12.80
2018-06-27T06:19:51.180Z,8.10
2018-06-27T06:20:51.103Z,14.00
2018-06-27T06:21:51.064Z,9.50
2018-06-27T06:22:51.049Z,11.40
2018-06-27T06:23:50.999Z,11.40
2018-06-27T06:24:50.982Z,6.80
2018-06-27T06:25:50.988Z,9.90
2018-06-27T06:26:50.903Z,11.90
2018-06-27T06:27:50.873Z,8.70
2018-06-27T06:28:50.944Z,8.10
2018-06-27T06:29:50.811Z,13.20
2018-06-27T06:30:50.770Z,13.80
2018-06-27T06:31:50.745Z,8.40
2018-06-27T06:32:50.706Z,7.30
2018-06-27T06:33:50.670Z,6.70
2018-06-27T06:34:50.706Z,7.80
2018-06-27T06:35:50.619Z,9.00
2018-06-27T06:36:50.570Z,7.30
2018-06-27T06:37:50.541Z,9.40
2018-06-27T06:38:50.509Z,10.30
2018-06-27T06:39:50.678Z,9.30
2018-06-27T06:40:50.502Z,7.60
2018-06-27T06:41:50.408Z,8.80
2018-06-27T06:42:50.370Z,12.60
2018-06-27T06:43:50.344Z,6.50
2018-06-27T06:44:50.308Z,8.30
2018-06-27T06:45:50.370Z,11.00
2018-06-27T06:46:50.248Z,11.10
2018-06-27T06:47:50.214Z,10.90
2018-06-27T06:48:50.184Z,10.20
2018-06-27T06:49:50.142Z,10.50
2018-06-27T06:50:50.376Z,9.40
2018-06-27T06:51:50.077Z,9.20
2018-06-27T06:52:50.051Z,7.70
2018-06-27T06:53:50.014Z,8.20
2018-06-27T06:54:49.989Z,10.20
2018-06-27T06:55:49.951Z,6.00
2018-06-27T06:57:49.886Z,12.30
2018-06-27T06:58:49.915Z,9.80
2018-06-27T06:59:49.820Z,7.60
2018-06-27T07:00:49.781Z,5.60
2018-06-27T07:01:49.746Z,7.20
2018-06-27T07:02:49.721Z,7.40
2018-06-27T07:03:49.697Z,7.60
2018-06-27T07:04:49.732Z,7.30
2018-06-27T07:05:49.620Z,9.80
2018-06-27T07:06:49.587Z,8.10
2018-06-27T07:07:49.558Z,11.70
2018-06-27T07:08:49.538Z,9.30
2018-06-27T07:09:49.490Z,11.90
2018-06-27T07:10:49.513Z,8.50
2018-06-27T07:11:49.421Z,11.60
2018-06-27T07:12:49.387Z,6.00
2018-06-27T07:13:49.364Z,5.90
2018-06-27T07:14:49.333Z,8.80
2018-06-27T07:15:49.297Z,9.90
2018-06-27T07:16:49.457Z,7.80
2018-06-27T07:17:49.246Z,11.70
2018-06-27T07:18:49.203Z,11.50
2018-06-27T07:19:49.166Z,10.40
2018-06-27T07:20:49.134Z,8.50
2018-06-27T07:22:49.059Z,14.20
2018-06-27T07:23:49.023Z,10.00
2018-06-27T07:24:49.000Z,14.00
2018-06-27T07:25:48.967Z,8.90
2018-06-27T07:26:48.925Z,7.10
2018-06-27T07:27:48.944Z,5.20
2018-06-27T07:28:48.878Z,5.80
2018-06-27T07:29:48.878Z,7.00
2018-06-27T07:30:48.799Z,9.10
2018-06-27T07:31:48.763Z,9.60
2018-06-27T07:32:48.882Z,6.90
2018-06-27T07:33:48.710Z,7.40
2018-06-27T07:34:48.681Z,8.00
2018-06-27T07:35:48.720Z,6.50
2018-06-27T07:36:48.596Z,7.60
2018-06-27T07:37:48.565Z,8.70
2018-06-27T07:38:48.748Z,4.70
2018-06-27T07:39:48.510Z,6.90
2018-06-27T07:40:48.481Z,7.90
2018-06-27T07:41:48.433Z,4.90
2018-06-27T07:42:48.399Z,9.00
2018-06-27T07:43:48.387Z,8.20
2018-06-27T07:44:48.443Z,5.40
2018-06-27T07:45:48.303Z,8.70
2018-06-27T07:46:48.270Z,10.10
2018-06-27T07:47:48.249Z,6.40
2018-06-27T07:48:48.204Z,5.50
2018-06-27T07:49:48.186Z,9.60
2018-06-27T07:50:48.343Z,8.40
2018-06-27T07:51:48.105Z,5.30
2018-06-27T07:52:48.075Z,4.40
2018-06-27T07:53:48.039Z,7.90
2018-06-27T07:54:48.009Z,6.70
2018-06-27T07:55:47.981Z,8.10
2018-06-27T07:56:47.946Z,6.70
2018-06-27T07:57:47.905Z,9.60
2018-06-27T07:58:47.872Z,6.50
2018-06-27T07:59:47.840Z,4.50
2018-06-27T08:00:47.820Z,8.60
2018-06-27T08:01:47.787Z,10.20
2018-06-27T08:02:47.744Z,8.60
2018-06-27T08:03:47.744Z,7.00
2018-06-27T08:04:47.677Z,7.40
2018-06-27T08:05:47.726Z,7.10
2018-06-27T08:06:47.924Z,9.00
2018-06-27T08:07:47.578Z,6.90
2018-06-27T08:08:47.556Z,6.30
2018-06-27T08:09:47.523Z,4.50
2018-06-27T08:10:47.478Z,10.00
2018-06-27T08:11:47.449Z,14.40
2018-06-27T08:12:47.419Z,6.50
2018-06-27T08:13:47.378Z,8.00
2018-06-27T08:14:47.354Z,7.50
2018-06-27T08:15:47.313Z,6.30
2018-06-27T08:16:47.285Z,7.70
2018-06-27T08:17:47.262Z,10.90
2018-06-27T08:18:47.225Z,6.90
2018-06-27T08:19:47.193Z,7.40
2018-06-27T08:20:47.146Z,7.80
2018-06-27T08:21:47.124Z,6.30
2018-06-27T08:22:47.082Z,7.40
2018-06-27T08:23:47.055Z,9.70
2018-06-27T08:24:47.018Z,7.20
2018-06-27T08:25:46.990Z,8.80
2018-06-27T08:26:46.952Z,5.90
2018-06-27T08:27:46.918Z,5.50
2018-06-27T08:28:46.888Z,7.00
2018-06-27T08:29:46.862Z,6.90
2018-06-27T08:30:46.821Z,4.90
2018-06-27T08:31:46.795Z,7.10
2018-06-27T08:32:46.772Z,4.20
2018-06-27T08:33:47.037Z,5.70
2018-06-27T08:34:46.690Z,7.30
2018-06-27T08:35:46.660Z,7.60
2018-06-27T08:36:46.620Z,8.90
2018-06-27T08:37:46.590Z,9.30
2018-06-27T08:38:46.554Z,6.80
2018-06-27T08:39:46.739Z,5.70
2018-06-27T08:40:46.487Z,6.60
2018-06-27T08:41:46.459Z,7.50
2018-06-27T08:42:46.431Z,6.00
2018-06-27T08:43:46.416Z,6.10
2018-06-27T08:44:46.364Z,6.80
2018-06-27T08:46:46.290Z,7.50
2018-06-27T08:47:46.281Z,7.20
2018-06-27T08:48:46.242Z,8.10
2018-06-27T08:49:46.202Z,11.10
2018-06-27T08:50:46.155Z,28.70
2018-06-27T08:51:46.133Z,13.00
2018-06-27T08:52:46.106Z,7.40
2018-06-27T08:53:46.086Z,8.50
2018-06-27T08:54:46.034Z,10.30
2018-06-27T08:55:46.004Z,8.40
2018-06-27T08:56:45.959Z,9.80
2018-06-27T08:57:45.931Z,6.30
2018-06-27T08:58:45.919Z,7.00
2018-06-27T08:59:45.865Z,6.00
2018-06-27T09:00:45.834Z,12.40
2018-06-27T09:01:46.010Z,9.20
2018-06-27T09:02:45.784Z,7.40
2018-06-27T09:03:45.726Z,8.70
2018-06-27T09:04:45.698Z,6.40
2018-06-27T09:05:45.662Z,7.10
2018-06-27T09:06:45.633Z,10.70
2018-06-27T09:07:45.648Z,6.00
2018-06-27T09:08:45.573Z,6.20
2018-06-27T09:09:45.538Z,7.20
2018-06-27T09:10:45.508Z,8.50
2018-06-27T09:11:45.487Z,9.30
2018-06-27T09:12:45.433Z,9.10
2018-06-27T09:13:45.408Z,11.40
2018-06-27T09:14:45.377Z,11.00
2018-06-27T09:15:45.339Z,11.80
2018-06-27T09:16:45.311Z,7.40
2018-06-27T09:17:45.280Z,4.20
2018-06-27T09:18:45.435Z,8.50
2018-06-27T09:19:45.201Z,7.10
2018-06-27T09:20:45.169Z,7.00
2018-06-27T09:21:45.141Z,7.10
2018-06-27T09:22:45.116Z,9.30
2018-06-27T09:23:45.077Z,7.90
2018-06-27T09:24:45.047Z,8.80
2018-06-27T09:25:45.008Z,5.90
2018-06-27T09:26:44.970Z,6.30
2018-06-27T09:27:44.940Z,8.60
2018-06-27T09:28:44.908Z,4.60
2018-06-27T09:29:44.935Z,5.90
2018-06-27T09:30:44.839Z,9.90
2018-06-27T09:31:44.808Z,6.10
2018-06-27T09:32:44.780Z,10.50
2018-06-27T09:33:44.946Z,5.10
2018-06-27T09:34:44.711Z,7.50
2018-06-27T09:35:44.682Z,4.40
2018-06-27T09:36:44.641Z,8.50
2018-06-27T09:37:44.607Z,9.30
2018-06-27T09:38:44.585Z,12.20
2018-06-27T09:39:46.444Z,5.20
2018-06-27T09:40:44.508Z,11.20
2018-06-27T09:41:44.477Z,17.40
2018-06-27T09:42:44.444Z,17.80
2018-06-27T09:43:44.410Z,14.50
2018-06-27T09:44:44.387Z,11.60
2018-06-27T09:45:44.396Z,9.30
2018-06-27T09:46:44.323Z,8.30
2018-06-27T09:47:44.375Z,6.10
2018-06-27T09:48:44.241Z,8.00
2018-06-27T09:49:44.215Z,7.30
2018-06-27T09:50:44.325Z,7.50
2018-06-27T09:51:44.148Z,9.20
2018-06-27T09:52:44.113Z,7.00
2018-06-27T09:53:44.090Z,11.70
2018-06-27T09:54:44.049Z,9.70
2018-06-27T09:55:44.061Z,9.80
2018-06-27T09:56:43.999Z,6.00
2018-06-27T09:57:43.944Z,9.50
2018-06-27T09:58:43.908Z,11.30
2018-06-27T09:59:43.875Z,11.50
2018-06-27T10:00:43.850Z,9.60
2018-06-27T10:01:43.814Z,5.40
2018-06-27T10:02:43.783Z,9.00
2018-06-27T10:03:43.747Z,10.70
2018-06-27T10:04:43.721Z,5.30
2018-06-27T10:05:43.697Z,8.70
2018-06-27T10:06:44.052Z,10.40
2018-06-27T10:07:43.634Z,6.10
2018-06-27T10:08:43.582Z,6.10
2018-06-27T10:09:43.558Z,6.90
2018-06-27T10:10:43.513Z,10.00
2018-06-27T10:11:43.487Z,9.00
2018-06-27T10:12:43.446Z,5.90
2018-06-27T10:13:43.419Z,6.10
2018-06-27T10:14:43.378Z,4.60
2018-06-27T10:15:43.362Z,7.00
2018-06-27T10:16:43.321Z,7.90
2018-06-27T10:17:43.281Z,6.80
2018-06-27T10:18:43.257Z,4.00
2018-06-27T10:19:43.214Z,9.40
2018-06-27T10:20:43.197Z,7.80
2018-06-27T10:21:43.148Z,11.40
2018-06-27T10:22:43.187Z,12.60
2018-06-27T10:23:43.082Z,15.10
2018-06-27T10:24:43.055Z,14.00
2018-06-27T10:25:43.025Z,10.60
2018-06-27T10:26:42.986Z,14.70
2018-06-27T10:27:42.953Z,11.40
2018-06-27T10:28:42.927Z,13.30
2018-06-27T10:29:42.887Z,13.80
2018-06-27T10:30:42.875Z,17.20
2018-06-27T10:31:42.826Z,6.30
2018-06-27T10:32:42.848Z,11.80
2018-06-27T10:33:42.762Z,8.10
2018-06-27T10:34:42.723Z,13.50
2018-06-27T10:35:42.743Z,8.70
2018-06-27T10:36:42.653Z,8.90
2018-06-27T10:37:42.627Z,8.40
2018-06-27T10:38:42.811Z,5.80
2018-06-27T10:39:42.637Z,7.60
2018-06-27T10:40:42.548Z,8.60
2018-06-27T10:41:42.503Z,7.20
2018-06-27T10:42:42.465Z,8.60
2018-06-27T10:43:42.436Z,8.80
2018-06-27T10:44:42.397Z,9.30
2018-06-27T10:45:42.379Z,9.00
2018-06-27T10:46:42.335Z,8.50
2018-06-27T10:47:42.302Z,5.30
2018-06-27T10:48:42.268Z,9.60
2018-06-27T10:49:42.239Z,7.20
2018-06-27T10:50:42.210Z,9.80
2018-06-27T10:51:42.168Z,8.70
2018-06-27T10:52:42.148Z,12.80
2018-06-27T10:53:42.108Z,10.30
2018-06-27T10:54:42.071Z,11.40
2018-06-27T10:55:42.135Z,7.10
2018-06-27T10:56:42.013Z,8.40
2018-06-27T10:57:41.979Z,12.30
2018-06-27T10:58:41.948Z,8.60
2018-06-27T10:59:41.931Z,7.50
2018-06-27T11:00:41.883Z,9.10
2018-06-27T11:01:41.860Z,8.00
2018-06-27T11:02:41.820Z,11.00
2018-06-27T11:03:41.788Z,8.70
2018-06-27T11:04:41.767Z,10.40
2018-06-27T11:05:41.723Z,14.30
2018-06-27T11:06:41.912Z,14.00
2018-06-27T11:07:41.655Z,10.00
2018-06-27T11:08:41.634Z,22.30
2018-06-27T11:09:41.593Z,16.80
2018-06-27T11:10:41.562Z,19.30
2018-06-27T11:11:41.535Z,10.00
2018-06-27T11:12:41.708Z,16.40
2018-06-27T11:13:41.468Z,11.50
2018-06-27T11:14:41.444Z,13.00
2018-06-27T11:15:41.407Z,17.30
2018-06-27T11:16:41.378Z,9.90
2018-06-27T11:17:41.344Z,10.40
2018-06-27T11:18:41.312Z,14.20
2018-06-27T11:19:41.280Z,16.50
2018-06-27T11:20:41.255Z,18.10
2018-06-27T11:21:41.221Z,45.40
2018-06-27T11:22:41.184Z,53.40
2018-06-27T11:23:41.406Z,52.00
2018-06-27T11:24:41.124Z,52.30
2018-06-27T11:25:41.093Z,77.90
2018-06-27T11:26:41.157Z,137.70
2018-06-27T11:27:41.036Z,97.40
2018-06-27T11:28:41.000Z,85.50
2018-06-27T11:29:40.969Z,107.50
2018-06-27T11:30:40.936Z,102.70
2018-06-27T11:31:40.908Z,103.40
2018-06-27T11:32:40.881Z,128.80
2018-06-27T11:33:41.192Z,142.60
2018-06-27T11:34:40.810Z,151.60
2018-06-27T11:35:40.793Z,154.70
2018-06-27T11:36:40.755Z,129.60
2018-06-27T11:37:40.719Z,151.70
2018-06-27T11:38:40.727Z,145.20
2018-06-27T11:39:40.956Z,122.90
2018-06-27T11:40:40.627Z,78.70
2018-06-27T11:41:40.597Z,94.80
2018-06-27T11:42:40.570Z,75.90
2018-06-27T11:43:40.537Z,61.80
2018-06-27T11:44:40.506Z,61.60
2018-06-27T11:45:40.673Z,63.30
2018-06-27T11:46:40.449Z,52.80
2018-06-27T11:47:40.410Z,53.20
2018-06-27T11:48:40.382Z,46.20
2018-06-27T11:49:40.355Z,42.50
2018-06-27T11:50:40.472Z,35.70
2018-06-27T11:51:40.292Z,32.50
2018-06-27T11:52:40.260Z,25.10
2018-06-27T11:53:40.242Z,25.70
2018-06-27T11:54:40.201Z,29.70
2018-06-27T11:55:40.168Z,23.20
2018-06-27T11:56:40.141Z,27.90
2018-06-27T11:57:40.107Z,25.90
2018-06-27T11:58:40.082Z,24.00
2018-06-27T11:59:40.052Z,19.60
2018-06-27T12:00:40.027Z,21.30
2018-06-27T12:01:40.002Z,25.40
2018-06-27T12:02:39.977Z,25.80
2018-06-27T12:03:39.966Z,31.20
2018-06-27T12:04:39.898Z,34.70
2018-06-27T12:05:39.872Z,29.50
2018-06-27T12:06:39.848Z,26.40
2018-06-27T12:07:39.837Z,24.20
2018-06-27T12:08:39.819Z,24.00
2018-06-27T12:09:39.772Z,20.50
2018-06-27T12:10:39.751Z,26.60
2018-06-27T12:11:39.867Z,19.10
2018-06-27T12:12:39.669Z,16.60
2018-06-27T12:13:39.641Z,19.60
2018-06-27T12:14:39.628Z,16.50
2018-06-27T12:15:39.597Z,9.70
2018-06-27T12:16:39.563Z,17.00
2018-06-27T12:17:39.678Z,15.60
2018-06-27T12:18:39.498Z,23.80
2018-06-27T12:19:39.480Z,10.00
2018-06-27T12:20:39.436Z,12.50
2018-06-27T12:21:39.409Z,14.00
2018-06-27T12:22:39.378Z,13.10
2018-06-27T12:23:39.338Z,11.30
2018-06-27T12:24:39.305Z,11.30
2018-06-27T12:25:39.276Z,18.00
2018-06-27T12:26:39.246Z,10.30
2018-06-27T12:27:39.223Z,11.10
2018-06-27T12:28:39.643Z,10.10
2018-06-27T12:29:39.190Z,8.50
2018-06-27T12:30:39.199Z,9.60
2018-06-27T12:31:39.118Z,11.90
2018-06-27T12:32:39.080Z,7.90
2018-06-27T12:33:39.064Z,12.00
2018-06-27T12:34:39.198Z,11.50
2018-06-27T12:35:38.981Z,12.70
2018-06-27T12:36:38.948Z,7.70
2018-06-27T12:37:38.923Z,7.50
2018-06-27T12:38:38.927Z,12.70
2018-06-27T12:39:39.058Z,14.30
2018-06-27T12:40:38.834Z,11.50
2018-06-27T12:41:38.809Z,10.80
2018-06-27T12:42:38.779Z,9.70
2018-06-27T12:43:38.743Z,10.90
2018-06-27T12:44:38.723Z,12.40
2018-06-27T12:45:39.130Z,9.70
2018-06-27T12:46:38.654Z,10.10
2018-06-27T12:47:38.648Z,8.10
2018-06-27T12:48:38.606Z,6.30
2018-06-27T12:49:38.562Z,8.70
2018-06-27T12:50:38.535Z,9.30
2018-06-27T12:51:38.735Z,8.80
2018-06-27T12:52:38.497Z,6.90
2018-06-27T12:53:38.445Z,6.10
2018-06-27T12:54:38.444Z,9.40
2018-06-27T12:55:38.395Z,7.50
2018-06-27T12:56:38.360Z,10.20
2018-06-27T12:57:38.338Z,8.50
2018-06-27T12:58:38.300Z,8.60
2018-06-27T12:59:38.316Z,7.70
2018-06-27T13:00:38.248Z,7.70
2018-06-27T13:01:38.412Z,8.10
2018-06-27T13:02:38.181Z,9.60
2018-06-27T13:03:38.168Z,5.40
2018-06-27T13:04:38.128Z,8.50